createdAt,value
2018-03-11T00:02:04.059Z,9.75
2018-03-11T00:04:33.140Z,9.83
2018-03-11T00:07:02.346Z,9.84
2018-03-11T00:09:31.449Z,9.86
2018-03-11T00:12:00.813Z,9.85
2018-03-11T00:14:30.053Z,9.89
2018-03-11T00:16:59.033Z,9.88
2018-03-11T00:19:28.307Z,9.94
2018-03-11T00:21:57.744Z,9.97
2018-03-11T00:24:26.972Z,9.92
2018-03-11T00:26:56.413Z,9.93
2018-03-11T00:29:25.593Z,9.88
2018-03-11T00:31:54.744Z,9.81
2018-03-11T00:34:24.121Z,9.82
2018-03-11T00:36:53.289Z,9.89
2018-03-11T00:39:22.608Z,9.84
2018-03-11T00:41:51.849Z,9.81
2018-03-11T00:44:21.571Z,9.92
2018-03-11T00:46:50.608Z,9.92
2018-03-11T00:49:19.853Z,9.96
2018-03-11T00:51:49.053Z,9.94
2018-03-11T00:54:18.263Z,9.95
2018-03-11T00:56:47.406Z,9.98
2018-03-11T00:59:16.406Z,9.92
2018-03-11T01:01:45.638Z,9.87
2018-03-11T01:04:15.055Z,9.75
2018-03-11T01:06:44.347Z,9.66
2018-03-11T01:09:13.678Z,9.55
2018-03-11T01:11:42.711Z,9.39
2018-03-11T01:14:11.754Z,9.35
2018-03-11T01:16:40.985Z,9.35
2018-03-11T01:19:10.381Z,9.38
2018-03-11T01:21:39.637Z,9.40
2018-03-11T01:24:08.920Z,9.36
2018-03-11T01:26:38.555Z,9.42
2018-03-11T01:29:07.797Z,9.42
2018-03-11T01:31:36.775Z,9.44
2018-03-11T01:34:05.833Z,9.49
2018-03-11T01:36:35.137Z,9.46
2018-03-11T01:39:04.418Z,9.47
2018-03-11T01:41:33.632Z,9.50
2018-03-11T01:44:03.151Z,9.49
2018-03-11T01:46:32.566Z,9.48
2018-03-11T01:49:01.845Z,9.61
2018-03-11T01:51:31.177Z,9.66
2018-03-11T01:54:00.465Z,9.57
2018-03-11T01:56:29.704Z,9.50
2018-03-11T01:58:58.961Z,9.56
2018-03-11T02:01:28.191Z,9.44
2018-03-11T02:03:57.505Z,9.35
2018-03-11T02:06:26.755Z,9.28
2018-03-11T02:08:56.181Z,9.24
2018-03-11T02:11:25.554Z,9.32
2018-03-11T02:13:54.854Z,9.23
2018-03-11T02:16:24.163Z,9.21
2018-03-11T02:18:53.369Z,9.28
2018-03-11T02:21:22.584Z,9.40
2018-03-11T02:23:51.862Z,9.44
2018-03-11T02:26:21.163Z,9.58
2018-03-11T02:28:50.553Z,9.71
2018-03-11T02:31:19.919Z,9.74
2018-03-11T02:33:49.423Z,9.72
2018-03-11T02:36:20.619Z,10.39
2018-03-11T02:38:49.989Z,10.11
2018-03-11T02:41:19.618Z,10.11
2018-03-11T02:43:48.728Z,9.99
2018-03-11T02:46:17.671Z,9.93
2018-03-11T02:48:46.772Z,9.73
2018-03-11T02:51:15.996Z,9.65
2018-03-11T02:53:45.190Z,9.69
2018-03-11T02:56:14.605Z,9.56
2018-03-11T02:58:43.941Z,9.50
2018-03-11T03:01:13.223Z,9.46
2018-03-11T03:03:42.969Z,9.53
2018-03-11T03:06:12.551Z,9.39
2018-03-11T03:08:42.080Z,9.34
2018-03-11T03:11:11.275Z,9.31
2018-03-11T03:13:40.432Z,9.34
2018-03-11T03:16:09.937Z,9.30
2018-03-11T03:18:39.233Z,9.29
2018-03-11T03:21:08.473Z,9.36
2018-03-11T03:23:38.055Z,9.33
2018-03-11T03:26:07.247Z,9.28
2018-03-11T03:28:36.673Z,9.47
2018-03-11T03:31:06.220Z,9.52
2018-03-11T03:33:35.513Z,9.60
2018-03-11T03:36:04.810Z,9.65
2018-03-11T03:38:34.323Z,9.56
2018-03-11T03:41:03.293Z,9.59
2018-03-11T03:43:32.753Z,9.66
2018-03-11T03:46:02.262Z,9.74
2018-03-11T03:48:31.670Z,9.78
2018-03-11T03:51:00.757Z,9.77
2018-03-11T03:53:30.311Z,9.88
2018-03-11T03:55:59.497Z,9.80
2018-03-11T03:58:28.491Z,9.74
2018-03-11T04:00:57.705Z,9.62
2018-03-11T04:03:27.217Z,9.59
2018-03-11T04:05:56.325Z,9.60
2018-03-11T04:08:26.403Z,9.51
2018-03-11T04:10:55.437Z,9.55
2018-03-11T04:13:24.500Z,9.49
2018-03-11T04:15:54.035Z,9.50
2018-03-11T04:18:23.751Z,9.49
2018-03-11T04:20:53.037Z,9.42
2018-03-11T04:23:22.502Z,9.44
2018-03-11T04:25:51.750Z,9.47
2018-03-11T04:28:20.690Z,9.44
2018-03-11T04:30:50.078Z,9.46
2018-03-11T04:33:19.291Z,9.52
2018-03-11T04:35:48.751Z,9.47
2018-03-11T04:38:18.044Z,9.57
2018-03-11T04:40:47.744Z,9.65
2018-03-11T04:43:16.935Z,9.65
2018-03-11T04:45:46.449Z,9.70
2018-03-11T04:48:15.550Z,9.77
2018-03-11T04:50:45.380Z,9.79
2018-03-11T04:53:14.727Z,9.80
2018-03-11T04:55:43.969Z,9.84
2018-03-11T04:58:13.293Z,9.90
2018-03-11T05:03:23.954Z,9.78
2018-03-11T05:05:53.045Z,9.79
2018-03-11T05:08:22.065Z,9.91
2018-03-11T05:10:51.441Z,9.92
2018-03-11T05:13:20.834Z,10.07
2018-03-11T05:15:50.252Z,10.01
2018-03-11T05:18:19.403Z,10.12
2018-03-11T05:20:48.749Z,10.01
2018-03-11T05:23:18.366Z,10.16
2018-03-11T05:25:47.465Z,10.24
2018-03-11T05:28:16.853Z,10.17
2018-03-11T05:30:45.831Z,10.20
2018-03-11T05:33:15.092Z,10.25
2018-03-11T05:35:44.465Z,10.26
2018-03-11T05:38:13.565Z,10.45
2018-03-11T05:40:43.059Z,10.33
2018-03-11T05:43:12.802Z,10.36
2018-03-11T05:45:41.945Z,10.43
2018-03-11T05:48:10.906Z,10.43
2018-03-11T05:50:39.949Z,10.47
2018-03-11T05:53:09.389Z,10.51
2018-03-11T05:55:38.653Z,10.57
2018-03-11T05:58:07.767Z,10.50
2018-03-11T06:00:36.903Z,10.34
2018-03-11T06:03:05.977Z,10.37
2018-03-11T06:05:35.147Z,10.33
2018-03-11T06:08:04.447Z,10.29
2018-03-11T06:10:33.553Z,10.69
2018-03-11T06:13:02.837Z,10.38
2018-03-11T06:15:32.353Z,10.45
2018-03-11T06:18:01.488Z,10.41
2018-03-11T06:20:30.805Z,10.41
2018-03-11T06:22:59.990Z,10.46
2018-03-11T06:25:29.195Z,10.60
2018-03-11T06:27:58.650Z,10.75
2018-03-11T06:30:27.945Z,10.70
2018-03-11T06:32:57.041Z,10.80
2018-03-11T06:35:26.292Z,10.98
2018-03-11T06:37:55.745Z,10.94
2018-03-11T06:40:24.921Z,11.12
2018-03-11T06:42:53.966Z,11.21
2018-03-11T06:45:23.199Z,11.19
2018-03-11T06:47:52.595Z,11.21
2018-03-11T06:50:21.937Z,11.29
2018-03-11T06:52:51.400Z,11.46
2018-03-11T06:55:21.009Z,11.27
2018-03-11T06:57:50.310Z,11.46
2018-03-11T07:00:19.816Z,11.56
2018-03-11T07:02:49.261Z,11.74
2018-03-11T07:05:18.461Z,11.91
2018-03-11T07:07:47.664Z,12.06
2018-03-11T07:10:17.165Z,12.02
2018-03-11T07:12:46.481Z,11.93
2018-03-11T07:15:17.205Z,12.15
2018-03-11T07:17:46.509Z,12.19
2018-03-11T07:20:15.863Z,12.14
2018-03-11T07:22:45.054Z,12.05
2018-03-11T07:25:14.447Z,12.13
2018-03-11T07:27:43.581Z,12.07
2018-03-11T07:30:12.989Z,12.08
2018-03-11T07:32:42.186Z,12.25
2018-03-11T07:35:11.525Z,12.37
2018-03-11T07:37:40.798Z,12.66
2018-03-11T07:40:10.247Z,12.79
2018-03-11T07:42:39.811Z,12.90
2018-03-11T07:45:09.205Z,12.80
2018-03-11T07:47:38.772Z,12.85
2018-03-11T07:50:08.375Z,12.88
2018-03-11T07:52:37.670Z,12.99
2018-03-11T07:55:06.865Z,13.12
2018-03-11T07:57:35.909Z,13.00
2018-03-11T08:00:05.271Z,13.11
2018-03-11T08:02:34.575Z,13.38
2018-03-11T08:05:03.810Z,13.41
2018-03-11T08:07:33.123Z,13.63
2018-03-11T08:10:02.387Z,13.68
2018-03-11T08:12:31.728Z,13.80
2018-03-11T08:15:01.230Z,13.91
2018-03-11T08:17:30.669Z,14.15
2018-03-11T08:19:59.971Z,14.16
2018-03-11T08:22:29.441Z,14.39
2018-03-11T08:24:59.041Z,14.55
2018-03-11T08:27:28.363Z,14.75
2018-03-11T08:29:57.901Z,14.76
2018-03-11T08:32:27.350Z,14.89
2018-03-11T08:34:56.574Z,15.22
2018-03-11T08:37:25.689Z,14.85
2018-03-11T08:39:55.049Z,15.03
2018-03-11T08:42:24.453Z,15.22
2018-03-11T08:44:53.862Z,15.27
2018-03-11T08:47:23.418Z,15.35
2018-03-11T08:49:52.402Z,15.30
2018-03-11T08:52:21.761Z,15.47
2018-03-11T08:54:51.433Z,15.58
2018-03-11T08:57:20.683Z,15.82
2018-03-11T08:59:49.938Z,15.89
2018-03-11T09:02:19.090Z,16.05
2018-03-11T09:04:48.785Z,16.25
2018-03-11T09:07:18.061Z,16.38
2018-03-11T09:09:47.394Z,16.24
2018-03-11T09:12:16.795Z,16.50
2018-03-11T09:14:45.982Z,16.54
2018-03-11T09:17:15.251Z,16.89
2018-03-11T09:19:44.709Z,16.78
2018-03-11T09:22:14.410Z,16.47
2018-03-11T09:24:43.648Z,16.70
2018-03-11T09:27:12.833Z,16.87
2018-03-11T09:29:41.737Z,16.68
2018-03-11T09:32:10.895Z,17.00
2018-03-11T09:34:39.941Z,17.04
2018-03-11T09:37:09.325Z,16.97
2018-03-11T09:39:38.741Z,17.01
2018-03-11T09:42:07.898Z,17.05
2018-03-11T09:44:37.129Z,17.09
2018-03-11T09:47:06.489Z,17.17
2018-03-11T09:49:35.899Z,17.01
2018-03-11T09:52:05.089Z,17.11
2018-03-11T09:54:34.808Z,17.19
2018-03-11T09:57:04.239Z,17.13
2018-03-11T09:59:33.604Z,17.17
2018-03-11T10:02:02.821Z,17.28
2018-03-11T10:04:31.760Z,17.32
2018-03-11T10:07:01.121Z,17.56
2018-03-11T10:09:30.310Z,17.68
2018-03-11T10:11:59.708Z,17.70
2018-03-11T10:14:29.065Z,17.91
2018-03-11T10:16:58.422Z,17.97
2018-03-11T10:19:27.827Z,18.05
2018-03-11T10:21:56.994Z,18.03
2018-03-11T10:24:26.051Z,17.86
2018-03-11T10:26:55.178Z,17.90
2018-03-11T10:29:24.405Z,17.89
2018-03-11T10:31:53.609Z,18.12
2018-03-11T10:34:22.966Z,18.47
2018-03-11T10:36:52.254Z,18.18
2018-03-11T10:39:21.602Z,18.35
2018-03-11T10:41:51.217Z,18.45
2018-03-11T10:44:20.940Z,18.60
2018-03-11T10:46:50.392Z,18.91
2018-03-11T10:49:19.433Z,18.91
2018-03-11T10:51:48.647Z,18.72
2018-03-11T10:54:17.990Z,18.82
2018-03-11T10:56:47.289Z,18.65
2018-03-11T10:59:16.222Z,18.75
2018-03-11T11:01:46.215Z,19.07
2018-03-11T11:04:15.390Z,18.84
2018-03-11T11:06:44.681Z,18.76
2018-03-11T11:09:13.946Z,18.77
2018-03-11T11:11:43.284Z,18.71
2018-03-11T11:14:12.619Z,19.21
2018-03-11T11:16:42.159Z,19.15
2018-03-11T11:19:11.529Z,19.34
2018-03-11T11:21:40.856Z,19.59
2018-03-11T11:24:10.170Z,19.59
2018-03-11T11:26:39.302Z,19.51
2018-03-11T11:29:08.965Z,19.44
2018-03-11T11:31:37.922Z,19.57
2018-03-11T11:34:07.058Z,19.62
2018-03-11T11:36:36.233Z,19.56
2018-03-11T11:39:05.367Z,20.07
2018-03-11T11:41:34.561Z,19.74
2018-03-11T11:44:03.912Z,19.83
2018-03-11T11:46:33.197Z,20.46
2018-03-11T11:49:02.218Z,20.20
2018-03-11T11:51:31.564Z,20.37
2018-03-11T11:54:00.652Z,19.96
2018-03-11T11:56:30.253Z,20.68
2018-03-11T11:58:59.557Z,20.52
2018-03-11T12:01:28.753Z,20.47
2018-03-11T12:03:58.157Z,20.64
2018-03-11T12:06:27.267Z,20.12
2018-03-11T12:08:56.819Z,20.42
2018-03-11T12:11:26.166Z,20.69
2018-03-11T12:13:55.465Z,20.87
2018-03-11T12:16:24.819Z,21.25
2018-03-11T12:18:53.974Z,20.76
2018-03-11T12:21:23.386Z,20.33
2018-03-11T12:23:52.877Z,19.53
2018-03-11T12:26:22.444Z,19.09
2018-03-11T12:28:51.723Z,18.68
2018-03-11T12:31:20.886Z,18.64
2018-03-11T12:33:50.877Z,18.33
2018-03-11T12:36:19.915Z,18.57
2018-03-11T12:38:49.310Z,17.03
2018-03-11T12:41:18.642Z,17.07
2018-03-11T12:43:47.841Z,17.09
2018-03-11T12:46:16.942Z,17.11
2018-03-11T12:48:46.114Z,16.86
2018-03-11T12:51:15.319Z,16.86
2018-03-11T12:53:44.490Z,16.73
2018-03-11T12:56:13.899Z,17.08
2018-03-11T12:58:43.095Z,17.07
2018-03-11T13:01:12.086Z,16.87
2018-03-11T13:03:41.389Z,16.82
2018-03-11T13:06:10.662Z,17.13
2018-03-11T13:08:39.997Z,17.33
2018-03-11T13:11:08.809Z,17.17
2018-03-11T13:13:38.007Z,17.33
2018-03-11T13:16:07.163Z,17.34
2018-03-11T13:18:36.307Z,17.19
2018-03-11T13:21:07.593Z,17.35
2018-03-11T13:23:36.966Z,17.09
2018-03-11T13:26:05.710Z,17.16
2018-03-11T13:28:46.593Z,16.64
2018-03-11T13:31:16.011Z,16.46
2018-03-11T13:33:56.349Z,16.52
2018-03-11T13:36:25.406Z,17.37
2018-03-11T13:39:05.817Z,17.20
2018-03-11T13:41:35.049Z,17.07
2018-03-11T13:44:04.247Z,17.06
2018-03-11T13:46:44.698Z,16.71
2018-03-11T13:49:13.534Z,16.83
2018-03-11T13:51:53.899Z,16.80
2018-03-11T13:54:22.914Z,16.36
2018-03-11T14:00:10.857Z,16.57
2018-03-11T14:02:40.073Z,16.42
2018-03-11T14:05:09.080Z,16.51
2018-03-11T14:07:38.357Z,16.17
2018-03-11T14:10:07.477Z,16.12
2018-03-11T14:12:36.702Z,16.39
2018-03-11T14:15:05.959Z,15.88
2018-03-11T14:17:35.339Z,16.06
2018-03-11T14:20:04.650Z,16.39
2018-03-11T14:22:33.819Z,15.82
2018-03-11T14:25:03.019Z,15.98
2018-03-11T14:27:32.381Z,16.62
2018-03-11T14:30:01.665Z,15.85
2018-03-11T14:32:31.079Z,16.65
2018-03-11T14:35:00.844Z,16.00
2018-03-11T14:37:29.998Z,16.01
2018-03-11T14:39:58.942Z,15.73
2018-03-11T14:42:28.206Z,15.48
2018-03-11T14:44:57.309Z,16.16
2018-03-11T14:47:26.403Z,15.50
2018-03-11T14:49:55.524Z,16.32
2018-03-11T14:52:25.030Z,16.27
2018-03-11T14:54:54.229Z,15.60
2018-03-11T14:57:23.750Z,15.15
2018-03-11T14:59:52.869Z,14.95
2018-03-11T15:02:22.070Z,14.10
2018-03-11T15:04:51.226Z,14.28
2018-03-11T15:07:20.325Z,13.50
2018-03-11T15:09:49.382Z,13.40
2018-03-11T15:12:18.473Z,13.57
2018-03-11T15:14:47.831Z,13.60
2018-03-11T15:17:17.023Z,13.11
2018-03-11T15:19:46.206Z,12.60
2018-03-11T15:22:15.385Z,12.80
2018-03-11T15:24:44.981Z,12.84
2018-03-11T15:27:14.023Z,13.13
2018-03-11T15:29:43.487Z,12.69
2018-03-11T15:32:13.048Z,13.02
2018-03-11T15:34:42.387Z,13.02
2018-03-11T15:37:11.598Z,13.10
2018-03-11T15:39:40.765Z,13.41
2018-03-11T15:42:09.879Z,13.14
2018-03-11T15:44:39.022Z,12.94
2018-03-11T15:49:43.785Z,12.33
2018-03-11T15:52:13.133Z,12.48
2018-03-11T15:54:42.460Z,12.43
2018-03-11T15:57:11.858Z,12.34
2018-03-11T15:59:41.004Z,12.57
2018-03-11T16:02:10.422Z,12.54
2018-03-11T16:04:39.517Z,12.78
2018-03-11T16:07:08.614Z,12.65
2018-03-11T16:09:37.857Z,12.93
2018-03-11T16:12:07.165Z,12.55
2018-03-11T16:14:36.413Z,12.43
2018-03-11T16:17:05.607Z,12.46
2018-03-11T16:19:34.779Z,12.09
2018-03-11T16:22:04.011Z,11.87
2018-03-11T16:24:39.617Z,11.93
2018-03-11T16:27:02.601Z,11.86
2018-03-11T16:29:32.063Z,11.58
2018-03-11T16:32:01.170Z,11.36
2018-03-11T16:34:30.336Z,11.28
2018-03-11T16:36:59.541Z,11.15
2018-03-11T16:39:28.497Z,11.09
2018-03-11T16:41:57.545Z,11.29
2018-03-11T16:44:26.623Z,11.16
2018-03-11T16:46:55.885Z,11.19
2018-03-11T16:49:25.019Z,11.17
2018-03-11T16:51:54.122Z,11.30
2018-03-11T16:54:23.208Z,11.43
2018-03-11T16:56:52.467Z,11.31
2018-03-11T16:59:21.519Z,11.39
2018-03-11T17:01:50.609Z,11.29
2018-03-11T17:04:20.040Z,11.28
2018-03-11T17:06:49.299Z,11.40
2018-03-11T17:09:18.786Z,11.43
2018-03-11T17:11:48.109Z,11.55
2018-03-11T17:14:18.265Z,11.66
2018-03-11T17:16:47.701Z,11.68
2018-03-11T17:19:16.826Z,11.47
2018-03-11T17:21:45.758Z,11.48
2018-03-11T17:24:14.983Z,11.71
2018-03-11T17:26:44.549Z,11.46
2018-03-11T17:29:13.867Z,11.51
2018-03-11T17:31:43.006Z,11.64
2018-03-11T17:34:11.951Z,11.47
2018-03-11T17:36:40.987Z,11.46
2018-03-11T17:39:10.240Z,11.25
2018-03-11T17:41:39.386Z,11.22
2018-03-11T17:44:08.615Z,11.23
2018-03-11T17:46:37.565Z,11.36
2018-03-11T17:49:06.622Z,11.20
2018-03-11T17:51:35.799Z,11.25
2018-03-11T17:54:04.947Z,11.44
2018-03-11T17:56:34.168Z,11.38
2018-03-11T17:59:02.937Z,11.29
2018-03-11T18:01:32.394Z,11.49
2018-03-11T18:04:01.577Z,11.40
2018-03-11T18:06:30.750Z,11.33
2018-03-11T18:09:00.457Z,11.28
2018-03-11T18:11:29.459Z,11.29
2018-03-11T18:13:58.810Z,11.17
2018-03-11T18:16:27.862Z,11.00
2018-03-11T18:18:57.042Z,10.60
2018-03-11T18:21:26.489Z,10.41
2018-03-11T18:23:55.341Z,10.43
2018-03-11T18:26:24.813Z,10.42
2018-03-11T18:28:54.165Z,10.50
2018-03-11T18:31:23.236Z,10.88
2018-03-11T18:33:52.681Z,10.81
2018-03-11T18:36:22.053Z,11.03
2018-03-11T18:38:51.285Z,11.07
2018-03-11T18:41:20.665Z,10.93
2018-03-11T18:43:50.137Z,10.85
2018-03-11T18:46:19.349Z,10.84
2018-03-11T18:48:48.755Z,11.07
2018-03-11T18:51:18.196Z,10.63
2018-03-11T18:53:47.561Z,10.63
2018-03-11T18:56:16.782Z,10.83
2018-03-11T18:58:45.667Z,10.81
2018-03-11T19:01:15.093Z,10.91
2018-03-11T19:03:44.363Z,11.04
2018-03-11T19:06:13.593Z,11.12
2018-03-11T19:08:42.707Z,10.90
2018-03-11T19:11:12.063Z,10.73
2018-03-11T19:13:41.513Z,10.66
2018-03-11T19:16:10.857Z,10.61
2018-03-11T19:18:40.015Z,10.59
2018-03-11T19:21:08.983Z,10.89
2018-03-11T19:23:38.349Z,10.74
2018-03-11T19:26:08.018Z,10.65
2018-03-11T19:28:37.375Z,10.67
2018-03-11T19:31:06.878Z,10.80
2018-03-11T19:33:36.373Z,10.79
2018-03-11T19:36:05.683Z,10.81
2018-03-11T19:38:34.745Z,10.88
2018-03-11T19:41:04.226Z,10.77
2018-03-11T19:43:33.634Z,10.63
2018-03-11T19:46:02.748Z,10.66
2018-03-11T19:48:35.011Z,10.64
2018-03-11T19:51:04.502Z,10.44
2018-03-11T19:53:33.863Z,10.71
2018-03-11T19:56:03.177Z,10.50
2018-03-11T19:58:32.259Z,10.42
2018-03-11T20:01:01.573Z,10.78
2018-03-11T20:03:30.849Z,10.91
2018-03-11T20:06:00.457Z,11.36
2018-03-11T20:08:29.749Z,11.42
2018-03-11T20:10:58.852Z,11.14
2018-03-11T20:13:27.755Z,10.74
2018-03-11T20:15:57.030Z,10.69
2018-03-11T20:18:25.985Z,10.47
2018-03-11T20:20:55.321Z,10.31
2018-03-11T20:23:24.551Z,10.17
2018-03-11T20:25:53.900Z,10.04
2018-03-11T20:28:23.275Z,9.92
2018-03-11T20:30:52.443Z,9.79
2018-03-11T20:33:21.650Z,9.68
2018-03-11T20:35:51.150Z,9.58
2018-03-11T20:38:20.858Z,9.61
2018-03-11T20:40:50.097Z,9.64
2018-03-11T20:43:19.457Z,9.45
2018-03-11T20:45:48.598Z,9.59
2018-03-11T20:48:17.970Z,9.53
2018-03-11T20:50:46.962Z,9.30
2018-03-11T20:53:16.354Z,9.20
2018-03-11T20:55:45.681Z,9.44
2018-03-11T20:58:14.753Z,9.38
2018-03-11T21:00:43.889Z,9.31
2018-03-11T21:03:12.967Z,9.11
2018-03-11T21:05:42.185Z,8.95
2018-03-11T21:08:11.173Z,8.86
2018-03-11T21:10:40.120Z,8.80
2018-03-11T21:13:09.388Z,9.45
2018-03-11T21:15:38.505Z,9.29
2018-03-11T21:18:07.326Z,9.31
2018-03-11T21:20:36.061Z,9.22
2018-03-11T21:23:05.285Z,9.21
2018-03-11T21:25:34.726Z,9.62
2018-03-11T21:28:04.109Z,9.30
2018-03-11T21:30:33.657Z,9.78
2018-03-11T21:33:02.793Z,9.49
2018-03-11T21:35:31.825Z,9.32
2018-03-11T21:38:00.797Z,9.53
2018-03-11T21:40:29.939Z,9.77
2018-03-11T21:42:59.213Z,9.20
2018-03-11T21:45:28.540Z,9.11
2018-03-11T21:47:58.219Z,9.10
2018-03-11T21:50:27.709Z,9.07
2018-03-11T21:52:56.645Z,8.96
2018-03-11T21:55:25.856Z,9.30
2018-03-11T21:57:55.235Z,9.13
2018-03-11T22:00:24.435Z,9.01
2018-03-11T22:02:53.500Z,8.92
2018-03-11T22:05:22.673Z,8.85
2018-03-11T22:07:51.950Z,9.20
2018-03-11T22:10:21.577Z,9.07
2018-03-11T22:12:50.908Z,8.84
2018-03-11T22:15:20.253Z,9.42
2018-03-11T22:17:49.821Z,8.88
2018-03-11T22:20:19.620Z,8.75
2018-03-11T22:22:48.708Z,8.67
2018-03-11T22:25:17.831Z,8.63
2018-03-11T22:27:47.284Z,8.68
2018-03-11T22:30:16.738Z,8.48
2018-03-11T22:32:45.936Z,8.38
2018-03-11T22:35:15.417Z,8.28
2018-03-11T22:37:44.847Z,8.29
2018-03-11T22:40:14.069Z,8.35
2018-03-11T22:42:43.132Z,8.28
2018-03-11T22:45:12.597Z,8.18
2018-03-11T22:47:41.543Z,8.11
2018-03-11T22:50:10.481Z,8.08
2018-03-11T22:52:39.670Z,8.12
2018-03-11T22:55:09.067Z,8.00
2018-03-11T22:57:42.887Z,7.91
2018-03-11T23:00:12.183Z,7.87
2018-03-11T23:02:41.224Z,7.87
2018-03-11T23:05:10.630Z,7.89
2018-03-11T23:07:39.868Z,7.93
2018-03-11T23:10:09.035Z,8.07
2018-03-11T23:12:38.123Z,8.14
2018-03-11T23:15:07.321Z,8.13
2018-03-11T23:17:36.672Z,7.90
2018-03-11T23:20:05.717Z,7.76
2018-03-11T23:22:34.913Z,7.72
2018-03-11T23:25:04.010Z,7.66
2018-03-11T23:27:32.786Z,7.72
2018-03-11T23:30:01.914Z,7.59
2018-03-11T23:32:30.829Z,7.50
2018-03-11T23:34:59.984Z,7.37
2018-03-11T23:37:29.435Z,7.33
2018-03-11T23:39:58.529Z,7.42
2018-03-11T23:42:28.009Z,7.42
2018-03-11T23:44:56.942Z,7.67
2018-03-11T23:47:26.166Z,7.45
2018-03-11T23:49:55.361Z,7.35
2018-03-11T23:52:24.131Z,7.32
2018-03-11T23:54:53.000Z,7.33
2018-03-11T23:57:21.893Z,7.31
2018-03-11T23:59:51.217Z,7.27
